sensor_id;sensor_type;location;lat;lon;timestamp;P1;durP1;ratioP1;P2;durP2;ratioP2
46653;SDS011;38960;51.074;17.004;2023-07-22T00:01:55;20.05;;;18.45;;
46653;SDS011;38960;51.074;17.004;2023-07-22T00:04:20;19.20;;;17.83;;
46653;SDS011;38960;51.074;17.004;2023-07-22T00:06:46;18.80;;;17.60;;
46653;SDS011;38960;51.074;17.004;2023-07-22T00:09:11;19.85;;;18.25;;
46653;SDS011;38960;51.074;17.004;2023-07-22T00:11:36;19.23;;;17.92;;
46653;SDS011;38960;51.074;17.004;2023-07-22T00:14:02;19.48;;;18.08;;
46653;SDS011;38960;51.074;17.004;2023-07-22T00:16:27;19.70;;;18.30;;
46653;SDS011;38960;51.074;17.004;2023-07-22T00:18:54;19.48;;;18.08;;
46653;SDS011;38960;51.074;17.004;2023-07-22T00:21:20;18.85;;;17.65;;
46653;SDS011;38960;51.074;17.004;2023-07-22T00:23:45;18.83;;;17.42;;
46653;SDS011;38960;51.074;17.004;2023-07-22T00:26:11;20.50;;;18.90;;
46653;SDS011;38960;51.074;17.004;2023-07-22T00:28:36;19.77;;;18.23;;
46653;SDS011;38960;51.074;17.004;2023-07-22T00:31:02;19.63;;;17.63;;
46653;SDS011;38960;51.074;17.004;2023-07-22T00:33:28;19.45;;;18.05;;
46653;SDS011;38960;51.074;17.004;2023-07-22T00:35:54;18.48;;;17.25;;
46653;SDS011;38960;51.074;17.004;2023-07-22T00:38:20;19.63;;;18.13;;
46653;SDS011;38960;51.074;17.004;2023-07-22T00:40:46;20.88;;;19.23;;
46653;SDS011;38960;51.074;17.004;2023-07-22T00:43:11;19.85;;;18.23;;
46653;SDS011;38960;51.074;17.004;2023-07-22T00:45:37;19.42;;;17.67;;
46653;SDS011;38960;51.074;17.004;2023-07-22T00:48:02;18.02;;;16.88;;
46653;SDS011;38960;51.074;17.004;2023-07-22T00:50:30;19.15;;;17.85;;
46653;SDS011;38960;51.074;17.004;2023-07-22T00:52:56;19.25;;;17.50;;
46653;SDS011;38960;51.074;17.004;2023-07-22T00:55:21;19.90;;;18.35;;
46653;SDS011;38960;51.074;17.004;2023-07-22T00:57:48;18.67;;;17.52;;
46653;SDS011;38960;51.074;17.004;2023-07-22T01:00:13;18.55;;;17.35;;
46653;SDS011;38960;51.074;17.004;2023-07-22T01:02:41;19.15;;;17.95;;
46653;SDS011;38960;51.074;17.004;2023-07-22T01:05:07;19.75;;;18.05;;
46653;SDS011;38960;51.074;17.004;2023-07-22T01:07:35;18.65;;;17.45;;
46653;SDS011;38960;51.074;17.004;2023-07-22T01:10:01;19.30;;;18.00;;
46653;SDS011;38960;51.074;17.004;2023-07-22T01:12:28;19.90;;;18.45;;
46653;SDS011;38960;51.074;17.004;2023-07-22T01:14:53;18.48;;;17.38;;
46653;SDS011;38960;51.074;17.004;2023-07-22T01:17:19;19.58;;;18.27;;
46653;SDS011;38960;51.074;17.004;2023-07-22T01:19:45;19.08;;;17.65;;
46653;SDS011;38960;51.074;17.004;2023-07-22T01:22:11;18.48;;;17.25;;
46653;SDS011;38960;51.074;17.004;2023-07-22T01:24:38;18.73;;;17.38;;
46653;SDS011;38960;51.074;17.004;2023-07-22T01:27:04;19.85;;;18.63;;
46653;SDS011;38960;51.074;17.004;2023-07-22T01:29:33;20.02;;;18.05;;
46653;SDS011;38960;51.074;17.004;2023-07-22T01:31:59;19.73;;;18.23;;
46653;SDS011;38960;51.074;17.004;2023-07-22T01:34:25;18.60;;;17.40;;
46653;SDS011;38960;51.074;17.004;2023-07-22T01:36:50;19.52;;;17.90;;
46653;SDS011;38960;51.074;17.004;2023-07-22T01:39:16;18.77;;;17.60;;
46653;SDS011;38960;51.074;17.004;2023-07-22T01:41:43;18.98;;;17.75;;
46653;SDS011;38960;51.074;17.004;2023-07-22T01:44:09;18.30;;;17.20;;
46653;SDS011;38960;51.074;17.004;2023-07-22T01:46:36;18.33;;;17.15;;
46653;SDS011;38960;51.074;17.004;2023-07-22T01:49:03;19.05;;;17.27;;
46653;SDS011;38960;51.074;17.004;2023-07-22T01:51:33;19.00;;;17.80;;
46653;SDS011;38960;51.074;17.004;2023-07-22T01:53:59;20.08;;;18.77;;
46653;SDS011;38960;51.074;17.004;2023-07-22T01:56:24;19.25;;;17.90;;
46653;SDS011;38960;51.074;17.004;2023-07-22T01:58:50;18.95;;;17.65;;
46653;SDS011;38960;51.074;17.004;2023-07-22T02:01:16;19.70;;;18.30;;
46653;SDS011;38960;51.074;17.004;2023-07-22T02:03:44;20.27;;;18.88;;
46653;SDS011;38960;51.074;17.004;2023-07-22T02:06:11;19.50;;;18.20;;
46653;SDS011;38960;51.074;17.004;2023-07-22T02:08:37;20.80;;;19.33;;
46653;SDS011;38960;51.074;17.004;2023-07-22T02:11:04;18.42;;;17.02;;
46653;SDS011;38960;51.074;17.004;2023-07-22T02:13:31;18.90;;;17.50;;
46653;SDS011;38960;51.074;17.004;2023-07-22T02:15:57;19.70;;;18.50;;
46653;SDS011;38960;51.074;17.004;2023-07-22T02:18:22;19.38;;;18.02;;
46653;SDS011;38960;51.074;17.004;2023-07-22T02:20:48;20.00;;;18.55;;
46653;SDS011;38960;51.074;17.004;2023-07-22T02:23:14;20.10;;;18.70;;
46653;SDS011;38960;51.074;17.004;2023-07-22T02:25:39;19.45;;;18.15;;
46653;SDS011;38960;51.074;17.004;2023-07-22T02:28:05;19.42;;;18.00;;
46653;SDS011;38960;51.074;17.004;2023-07-22T02:30:34;20.67;;;19.25;;
46653;SDS011;38960;51.074;17.004;2023-07-22T02:33:01;21.20;;;19.38;;
46653;SDS011;38960;51.074;17.004;2023-07-22T02:35:28;20.63;;;19.17;;
46653;SDS011;38960;51.074;17.004;2023-07-22T02:37:53;20.08;;;18.60;;
46653;SDS011;38960;51.074;17.004;2023-07-22T02:40:19;20.02;;;18.73;;
46653;SDS011;38960;51.074;17.004;2023-07-22T02:42:45;20.83;;;19.23;;
46653;SDS011;38960;51.074;17.004;2023-07-22T02:45:10;20.35;;;18.80;;
46653;SDS011;38960;51.074;17.004;2023-07-22T02:47:37;21.02;;;19.35;;
46653;SDS011;38960;51.074;17.004;2023-07-22T02:50:04;20.70;;;19.02;;
46653;SDS011;38960;51.074;17.004;2023-07-22T02:52:31;20.33;;;18.25;;
46653;SDS011;38960;51.074;17.004;2023-07-22T02:55:08;20.10;;;18.45;;
46653;SDS011;38960;51.074;17.004;2023-07-22T02:57:36;21.35;;;19.80;;
46653;SDS011;38960;51.074;17.004;2023-07-22T03:00:03;21.30;;;19.55;;
46653;SDS011;38960;51.074;17.004;2023-07-22T03:02:33;22.08;;;20.17;;
46653;SDS011;38960;51.074;17.004;2023-07-22T03:05:03;22.75;;;20.63;;
46653;SDS011;38960;51.074;17.004;2023-07-22T03:07:35;20.30;;;18.90;;
46653;SDS011;38960;51.074;17.004;2023-07-22T03:10:05;20.95;;;19.45;;
46653;SDS011;38960;51.074;17.004;2023-07-22T03:12:31;21.65;;;19.98;;
46653;SDS011;38960;51.074;17.004;2023-07-22T03:14:57;22.25;;;20.38;;
46653;SDS011;38960;51.074;17.004;2023-07-22T03:17:23;21.45;;;19.90;;
46653;SDS011;38960;51.074;17.004;2023-07-22T03:19:48;22.77;;;20.98;;
46653;SDS011;38960;51.074;17.004;2023-07-22T03:22:14;21.83;;;20.05;;
46653;SDS011;38960;51.074;17.004;2023-07-22T03:24:47;24.02;;;21.95;;
46653;SDS011;38960;51.074;17.004;2023-07-22T03:27:13;23.50;;;21.70;;
46653;SDS011;38960;51.074;17.004;2023-07-22T03:29:40;23.13;;;21.33;;
46653;SDS011;38960;51.074;17.004;2023-07-22T03:32:06;22.35;;;20.60;;
46653;SDS011;38960;51.074;17.004;2023-07-22T03:34:32;21.75;;;20.08;;
46653;SDS011;38960;51.074;17.004;2023-07-22T03:36:57;20.42;;;19.00;;
46653;SDS011;38960;51.074;17.004;2023-07-22T03:39:23;20.25;;;18.65;;
46653;SDS011;38960;51.074;17.004;2023-07-22T03:41:49;20.33;;;19.10;;
46653;SDS011;38960;51.074;17.004;2023-07-22T03:44:15;19.40;;;17.75;;
46653;SDS011;38960;51.074;17.004;2023-07-22T03:46:40;19.08;;;17.77;;
46653;SDS011;38960;51.074;17.004;2023-07-22T03:49:06;19.15;;;17.83;;
46653;SDS011;38960;51.074;17.004;2023-07-22T03:51:32;19.15;;;17.80;;
46653;SDS011;38960;51.074;17.004;2023-07-22T03:53:58;19.20;;;17.75;;
46653;SDS011;38960;51.074;17.004;2023-07-22T03:56:24;19.40;;;18.05;;
46653;SDS011;38960;51.074;17.004;2023-07-22T03:58:50;19.73;;;18.08;;
46653;SDS011;38960;51.074;17.004;2023-07-22T04:01:16;19.23;;;17.48;;
46653;SDS011;38960;51.074;17.004;2023-07-22T04:03:41;18.25;;;17.00;;
46653;SDS011;38960;51.074;17.004;2023-07-22T04:06:07;18.50;;;17.10;;
46653;SDS011;38960;51.074;17.004;2023-07-22T04:08:32;18.95;;;17.33;;
46653;SDS011;38960;51.074;17.004;2023-07-22T04:10:58;20.45;;;18.73;;
46653;SDS011;38960;51.074;17.004;2023-07-22T04:13:24;18.17;;;16.65;;
46653;SDS011;38960;51.074;17.004;2023-07-22T04:15:51;18.52;;;16.90;;
46653;SDS011;38960;51.074;17.004;2023-07-22T04:18:19;19.55;;;18.13;;
46653;SDS011;38960;51.074;17.004;2023-07-22T04:20:45;19.67;;;18.23;;
46653;SDS011;38960;51.074;17.004;2023-07-22T04:23:11;20.13;;;18.55;;
46653;SDS011;38960;51.074;17.004;2023-07-22T04:25:43;19.90;;;18.40;;
46653;SDS011;38960;51.074;17.004;2023-07-22T04:28:10;18.52;;;17.33;;
46653;SDS011;38960;51.074;17.004;2023-07-22T04:30:36;19.17;;;17.95;;
46653;SDS011;38960;51.074;17.004;2023-07-22T04:33:02;17.90;;;16.70;;
46653;SDS011;38960;51.074;17.004;2023-07-22T04:35:32;17.60;;;16.20;;
46653;SDS011;38960;51.074;17.004;2023-07-22T04:37:58;19.00;;;17.65;;
46653;SDS011;38960;51.074;17.004;2023-07-22T04:40:24;19.52;;;17.77;;
46653;SDS011;38960;51.074;17.004;2023-07-22T04:42:50;18.52;;;17.02;;
46653;SDS011;38960;51.074;17.004;2023-07-22T04:45:16;18.38;;;17.08;;
46653;SDS011;38960;51.074;17.004;2023-07-22T04:47:43;18.40;;;17.15;;
46653;SDS011;38960;51.074;17.004;2023-07-22T04:50:12;18.10;;;16.95;;
46653;SDS011;38960;51.074;17.004;2023-07-22T04:52:38;19.17;;;17.65;;
46653;SDS011;38960;51.074;17.004;2023-07-22T04:55:04;17.90;;;16.77;;
46653;SDS011;38960;51.074;17.004;2023-07-22T04:57:40;18.58;;;17.23;;
46653;SDS011;38960;51.074;17.004;2023-07-22T05:00:10;18.23;;;17.13;;
46653;SDS011;38960;51.074;17.004;2023-07-22T05:05:09;18.15;;;16.95;;
46653;SDS011;38960;51.074;17.004;2023-07-22T05:07:34;18.05;;;16.85;;
46653;SDS011;38960;51.074;17.004;2023-07-22T05:10:00;19.05;;;17.50;;
46653;SDS011;38960;51.074;17.004;2023-07-22T05:12:26;18.08;;;16.58;;
46653;SDS011;38960;51.074;17.004;2023-07-22T05:14:51;18.02;;;16.50;;
46653;SDS011;38960;51.074;17.004;2023-07-22T05:17:17;18.30;;;16.90;;
46653;SDS011;38960;51.074;17.004;2023-07-22T05:19:42;21.35;;;19.50;;
46653;SDS011;38960;51.074;17.004;2023-07-22T05:22:08;16.85;;;15.75;;
46653;SDS011;38960;51.074;17.004;2023-07-22T05:24:34;17.40;;;16.40;;
46653;SDS011;38960;51.074;17.004;2023-07-22T05:26:59;17.58;;;16.48;;
46653;SDS011;38960;51.074;17.004;2023-07-22T05:29:25;17.77;;;16.50;;
46653;SDS011;38960;51.074;17.004;2023-07-22T05:31:50;18.27;;;17.10;;
46653;SDS011;38960;51.074;17.004;2023-07-22T05:34:16;17.02;;;15.73;;
46653;SDS011;38960;51.074;17.004;2023-07-22T05:36:42;17.83;;;16.58;;
46653;SDS011;38960;51.074;17.004;2023-07-22T05:39:07;19.45;;;17.95;;
46653;SDS011;38960;51.074;17.004;2023-07-22T05:41:33;18.42;;;16.95;;
46653;SDS011;38960;51.074;17.004;2023-07-22T05:43:59;18.38;;;17.00;;
46653;SDS011;38960;51.074;17.004;2023-07-22T05:46:24;18.20;;;16.92;;
46653;SDS011;38960;51.074;17.004;2023-07-22T05:48:50;18.52;;;17.33;;
46653;SDS011;38960;51.074;17.004;2023-07-22T05:51:15;17.40;;;16.40;;
46653;SDS011;38960;51.074;17.004;2023-07-22T05:53:41;17.90;;;16.58;;
46653;SDS011;38960;51.074;17.004;2023-07-22T05:56:07;17.95;;;16.85;;
46653;SDS011;38960;51.074;17.004;2023-07-22T05:58:32;17.67;;;16.58;;
46653;SDS011;38960;51.074;17.004;2023-07-22T06:00:58;17.38;;;16.10;;
46653;SDS011;38960;51.074;17.004;2023-07-22T06:03:23;16.77;;;15.75;;
46653;SDS011;38960;51.074;17.004;2023-07-22T06:05:49;16.67;;;15.55;;
46653;SDS011;38960;51.074;17.004;2023-07-22T06:08:14;18.15;;;16.77;;
46653;SDS011;38960;51.074;17.004;2023-07-22T06:10:40;16.35;;;15.43;;
46653;SDS011;38960;51.074;17.004;2023-07-22T06:13:06;17.27;;;16.27;;
46653;SDS011;38960;51.074;17.004;2023-07-22T06:15:32;16.67;;;15.57;;
46653;SDS011;38960;51.074;17.004;2023-07-22T06:17:58;16.73;;;15.73;;
46653;SDS011;38960;51.074;17.004;2023-07-22T06:20:24;16.70;;;15.57;;
46653;SDS011;38960;51.074;17.004;2023-07-22T06:22:50;16.98;;;15.88;;
46653;SDS011;38960;51.074;17.004;2023-07-22T06:25:15;16.40;;;15.40;;
46653;SDS011;38960;51.074;17.004;2023-07-22T06:27:41;16.55;;;15.45;;
46653;SDS011;38960;51.074;17.004;2023-07-22T06:30:07;18.08;;;16.90;;
46653;SDS011;38960;51.074;17.004;2023-07-22T06:32:33;17.75;;;16.38;;
46653;SDS011;38960;51.074;17.004;2023-07-22T06:34:59;17.30;;;16.20;;
46653;SDS011;38960;51.074;17.004;2023-07-22T06:37:25;17.13;;;15.98;;
46653;SDS011;38960;51.074;17.004;2023-07-22T06:39:51;17.88;;;16.45;;
46653;SDS011;38960;51.074;17.004;2023-07-22T06:42:16;18.60;;;17.35;;
46653;SDS011;38960;51.074;17.004;2023-07-22T06:44:42;17.77;;;16.67;;
46653;SDS011;38960;51.074;17.004;2023-07-22T06:47:08;17.50;;;16.10;;
46653;SDS011;38960;51.074;17.004;2023-07-22T06:49:34;18.10;;;16.73;;
46653;SDS011;38960;51.074;17.004;2023-07-22T06:51:59;17.85;;;16.80;;
46653;SDS011;38960;51.074;17.004;2023-07-22T06:54:26;17.25;;;16.15;;
46653;SDS011;38960;51.074;17.004;2023-07-22T06:56:52;16.60;;;15.60;;
46653;SDS011;38960;51.074;17.004;2023-07-22T06:59:17;17.75;;;16.13;;
46653;SDS011;38960;51.074;17.004;2023-07-22T07:01:43;17.40;;;16.30;;
46653;SDS011;38960;51.074;17.004;2023-07-22T07:04:08;17.27;;;16.17;;
46653;SDS011;38960;51.074;17.004;2023-07-22T07:06:34;17.55;;;15.90;;
46653;SDS011;38960;51.074;17.004;2023-07-22T07:09:00;16.77;;;15.57;;
46653;SDS011;38960;51.074;17.004;2023-07-22T07:11:26;17.10;;;16.00;;
46653;SDS011;38960;51.074;17.004;2023-07-22T07:13:51;17.65;;;16.52;;
46653;SDS011;38960;51.074;17.004;2023-07-22T07:16:25;16.90;;;15.73;;
46653;SDS011;38960;51.074;17.004;2023-07-22T07:18:51;17.77;;;16.20;;
46653;SDS011;38960;51.074;17.004;2023-07-22T07:21:17;17.23;;;15.90;;
46653;SDS011;38960;51.074;17.004;2023-07-22T07:23:44;16.27;;;15.27;;
46653;SDS011;38960;51.074;17.004;2023-07-22T07:26:09;17.45;;;15.82;;
46653;SDS011;38960;51.074;17.004;2023-07-22T07:28:35;16.88;;;15.77;;
46653;SDS011;38960;51.074;17.004;2023-07-22T07:31:00;16.70;;;15.70;;
46653;SDS011;38960;51.074;17.004;2023-07-22T07:33:26;16.15;;;15.15;;
46653;SDS011;38960;51.074;17.004;2023-07-22T07:35:52;17.10;;;15.77;;
46653;SDS011;38960;51.074;17.004;2023-07-22T07:38:17;17.63;;;16.05;;
46653;SDS011;38960;51.074;17.004;2023-07-22T07:40:43;17.35;;;15.93;;
46653;SDS011;38960;51.074;17.004;2023-07-22T07:43:08;16.35;;;14.95;;
46653;SDS011;38960;51.074;17.004;2023-07-22T07:45:37;16.10;;;15.07;;
46653;SDS011;38960;51.074;17.004;2023-07-22T07:48:04;15.43;;;14.40;;
46653;SDS011;38960;51.074;17.004;2023-07-22T07:50:30;15.57;;;14.68;;
46653;SDS011;38960;51.074;17.004;2023-07-22T07:52:55;16.10;;;15.15;;
46653;SDS011;38960;51.074;17.004;2023-07-22T07:55:21;15.88;;;14.98;;
46653;SDS011;38960;51.074;17.004;2023-07-22T07:57:47;16.25;;;15.23;;
46653;SDS011;38960;51.074;17.004;2023-07-22T08:00:12;16.38;;;15.25;;
46653;SDS011;38960;51.074;17.004;2023-07-22T08:02:38;16.77;;;15.68;;
46653;SDS011;38960;51.074;17.004;2023-07-22T08:05:04;16.77;;;15.57;;
46653;SDS011;38960;51.074;17.004;2023-07-22T08:07:30;15.93;;;14.75;;
46653;SDS011;38960;51.074;17.004;2023-07-22T08:09:56;16.90;;;15.50;;
46653;SDS011;38960;51.074;17.004;2023-07-22T08:12:23;17.52;;;16.50;;
46653;SDS011;38960;51.074;17.004;2023-07-22T08:14:48;16.27;;;15.07;;
46653;SDS011;38960;51.074;17.004;2023-07-22T08:17:14;16.42;;;15.32;;
46653;SDS011;38960;51.074;17.004;2023-07-22T08:19:39;16.55;;;15.35;;
46653;SDS011;38960;51.074;17.004;2023-07-22T08:22:05;17.63;;;16.30;;
46653;SDS011;38960;51.074;17.004;2023-07-22T08:24:31;16.30;;;15.30;;
46653;SDS011;38960;51.074;17.004;2023-07-22T08:26:57;16.10;;;15.10;;
46653;SDS011;38960;51.074;17.004;2023-07-22T08:29:24;16.77;;;15.48;;
46653;SDS011;38960;51.074;17.004;2023-07-22T08:31:50;16.45;;;15.35;;
46653;SDS011;38960;51.074;17.004;2023-07-22T08:34:15;16.00;;;15.20;;
46653;SDS011;38960;51.074;17.004;2023-07-22T08:36:41;16.38;;;15.13;;
46653;SDS011;38960;51.074;17.004;2023-07-22T08:39:07;17.52;;;16.42;;
46653;SDS011;38960;51.074;17.004;2023-07-22T08:41:32;17.55;;;16.45;;
46653;SDS011;38960;51.074;17.004;2023-07-22T08:43:59;15.05;;;14.07;;
46653;SDS011;38960;51.074;17.004;2023-07-22T08:46:28;15.35;;;14.45;;
46653;SDS011;38960;51.074;17.004;2023-07-22T08:48:55;16.25;;;15.05;;
46653;SDS011;38960;51.074;17.004;2023-07-22T08:51:22;17.42;;;16.13;;
46653;SDS011;38960;51.074;17.004;2023-07-22T08:53:48;15.77;;;14.85;;
46653;SDS011;38960;51.074;17.004;2023-07-22T08:56:14;16.55;;;15.40;;
46653;SDS011;38960;51.074;17.004;2023-07-22T08:58:41;16.90;;;15.80;;
46653;SDS011;38960;51.074;17.004;2023-07-22T09:01:07;16.15;;;15.10;;
46653;SDS011;38960;51.074;17.004;2023-07-22T09:03:32;16.95;;;15.85;;
46653;SDS011;38960;51.074;17.004;2023-07-22T09:05:58;16.65;;;15.75;;
46653;SDS011;38960;51.074;17.004;2023-07-22T09:08:24;16.48;;;15.48;;
46653;SDS011;38960;51.074;17.004;2023-07-22T09:10:50;16.92;;;15.93;;
46653;SDS011;38960;51.074;17.004;2023-07-22T09:13:16;17.35;;;16.15;;
46653;SDS011;38960;51.074;17.004;2023-07-22T09:15:44;16.50;;;15.50;;
46653;SDS011;38960;51.074;17.004;2023-07-22T09:18:10;16.73;;;15.73;;
46653;SDS011;38960;51.074;17.004;2023-07-22T09:20:36;16.67;;;15.63;;
46653;SDS011;38960;51.074;17.004;2023-07-22T09:23:01;17.08;;;15.80;;
46653;SDS011;38960;51.074;17.004;2023-07-22T09:25:28;16.45;;;15.45;;
46653;SDS011;38960;51.074;17.004;2023-07-22T09:27:54;16.80;;;15.70;;
46653;SDS011;38960;51.074;17.004;2023-07-22T09:30:25;16.23;;;15.27;;
46653;SDS011;38960;51.074;17.004;2023-07-22T09:32:52;16.67;;;15.43;;
46653;SDS011;38960;51.074;17.004;2023-07-22T09:35:19;16.63;;;15.52;;
46653;SDS011;38960;51.074;17.004;2023-07-22T09:37:45;16.95;;;15.85;;
46653;SDS011;38960;51.074;17.004;2023-07-22T09:42:50;16.80;;;15.77;;
46653;SDS011;38960;51.074;17.004;2023-07-22T09:45:17;17.35;;;16.05;;
46653;SDS011;38960;51.074;17.004;2023-07-22T09:47:44;16.60;;;15.60;;
46653;SDS011;38960;51.074;17.004;2023-07-22T09:50:20;17.10;;;15.68;;
46653;SDS011;38960;51.074;17.004;2023-07-22T09:52:47;16.88;;;15.88;;
46653;SDS011;38960;51.074;17.004;2023-07-22T09:55:15;17.50;;;16.50;;
46653;SDS011;38960;51.074;17.004;2023-07-22T09:57:43;17.00;;;15.55;;
46653;SDS011;38960;51.074;17.004;2023-07-22T10:00:15;16.95;;;15.95;;
46653;SDS011;38960;51.074;17.004;2023-07-22T10:02:42;18.02;;;16.83;;
46653;SDS011;38960;51.074;17.004;2023-07-22T10:05:13;17.33;;;16.10;;
46653;SDS011;38960;51.074;17.004;2023-07-22T10:07:42;17.90;;;16.80;;
46653;SDS011;38960;51.074;17.004;2023-07-22T10:10:10;17.52;;;16.52;;
46653;SDS011;38960;51.074;17.004;2023-07-22T10:12:37;17.08;;;15.73;;
46653;SDS011;38960;51.074;17.004;2023-07-22T10:15:05;17.45;;;16.45;;
46653;SDS011;38960;51.074;17.004;2023-07-22T10:17:31;17.67;;;16.58;;
46653;SDS011;38960;51.074;17.004;2023-07-22T10:19:56;17.63;;;16.40;;
46653;SDS011;38960;51.074;17.004;2023-07-22T10:22:22;16.38;;;15.38;;
46653;SDS011;38960;51.074;17.004;2023-07-22T10:24:48;17.88;;;16.58;;
46653;SDS011;38960;51.074;17.004;2023-07-22T10:27:14;17.65;;;16.50;;
46653;SDS011;38960;51.074;17.004;2023-07-22T10:29:41;17.42;;;16.40;;
46653;SDS011;38960;51.074;17.004;2023-07-22T10:32:07;17.63;;;16.60;;
46653;SDS011;38960;51.074;17.004;2023-07-22T10:34:32;17.80;;;16.80;;
46653;SDS011;38960;51.074;17.004;2023-07-22T10:36:58;18.02;;;16.92;;
46653;SDS011;38960;51.074;17.004;2023-07-22T10:39:27;17.88;;;16.77;;
46653;SDS011;38960;51.074;17.004;2023-07-22T10:42:00;17.98;;;16.73;;
46653;SDS011;38960;51.074;17.004;2023-07-22T10:44:36;53.22;;;23.13;;
46653;SDS011;38960;51.074;17.004;2023-07-22T10:47:03;26.48;;;18.60;;
46653;SDS011;38960;51.074;17.004;2023-07-22T10:49:45;18.13;;;16.90;;
46653;SDS011;38960;51.074;17.004;2023-07-22T10:52:13;17.55;;;16.10;;
46653;SDS011;38960;51.074;17.004;2023-07-22T10:54:39;17.02;;;16.02;;
46653;SDS011;38960;51.074;17.004;2023-07-22T10:59:39;17.00;;;15.70;;
46653;SDS011;38960;51.074;17.004;2023-07-22T11:02:22;16.85;;;15.65;;
46653;SDS011;38960;51.074;17.004;2023-07-22T11:04:51;17.00;;;16.00;;
46653;SDS011;38960;51.074;17.004;2023-07-22T11:07:29;17.67;;;16.25;;
46653;SDS011;38960;51.074;17.004;2023-07-22T11:10:05;16.38;;;15.27;;
46653;SDS011;38960;51.074;17.004;2023-07-22T11:12:44;16.70;;;15.40;;
46653;SDS011;38960;51.074;17.004;2023-07-22T11:15:11;16.48;;;15.50;;
46653;SDS011;38960;51.074;17.004;2023-07-22T11:17:37;16.10;;;15.20;;
46653;SDS011;38960;51.074;17.004;2023-07-22T11:20:03;16.23;;;15.27;;
46653;SDS011;38960;51.074;17.004;2023-07-22T11:22:29;16.98;;;15.98;;
46653;SDS011;38960;51.074;17.004;2023-07-22T11:24:55;16.40;;;15.40;;
46653;SDS011;38960;51.074;17.004;2023-07-22T11:27:21;16.05;;;15.15;;
46653;SDS011;38960;51.074;17.004;2023-07-22T11:29:50;17.83;;;16.52;;
46653;SDS011;38960;51.074;17.004;2023-07-22T11:32:16;17.05;;;15.77;;
46653;SDS011;38960;51.074;17.004;2023-07-22T11:34:43;16.40;;;15.40;;
46653;SDS011;38960;51.074;17.004;2023-07-22T11:37:12;16.30;;;15.20;;
46653;SDS011;38960;51.074;17.004;2023-07-22T11:39:38;17.92;;;16.65;;
46653;SDS011;38960;51.074;17.004;2023-07-22T11:42:06;17.20;;;15.48;;
46653;SDS011;38960;51.074;17.004;2023-07-22T11:44:32;17.30;;;15.80;;
46653;SDS011;38960;51.074;17.004;2023-07-22T11:49:32;17.25;;;15.93;;
46653;SDS011;38960;51.074;17.004;2023-07-22T11:52:02;16.80;;;15.77;;
46653;SDS011;38960;51.074;17.004;2023-07-22T11:54:35;17.67;;;16.45;;
46653;SDS011;38960;51.074;17.004;2023-07-22T11:57:13;18.43;;;16.53;;
46653;SDS011;38960;51.074;17.004;2023-07-22T11:59:39;16.85;;;15.85;;
46653;SDS011;38960;51.074;17.004;2023-07-22T12:02:12;17.30;;;15.97;;
46653;SDS011;38960;51.074;17.004;2023-07-22T12:04:38;18.25;;;17.05;;
46653;SDS011;38960;51.074;17.004;2023-07-22T12:07:04;17.38;;;16.17;;
46653;SDS011;38960;51.074;17.004;2023-07-22T12:09:30;17.42;;;16.35;;
46653;SDS011;38960;51.074;17.004;2023-07-22T12:11:57;17.20;;;16.10;;
46653;SDS011;38960;51.074;17.004;2023-07-22T12:14:35;17.40;;;16.30;;
46653;SDS011;38960;51.074;17.004;2023-07-22T12:17:01;17.48;;;16.38;;
46653;SDS011;38960;51.074;17.004;2023-07-22T12:19:29;17.75;;;16.55;;
46653;SDS011;38960;51.074;17.004;2023-07-22T12:21:55;16.77;;;15.77;;
46653;SDS011;38960;51.074;17.004;2023-07-22T12:24:21;16.92;;;15.82;;
46653;SDS011;38960;51.074;17.004;2023-07-22T12:26:46;17.38;;;16.05;;
46653;SDS011;38960;51.074;17.004;2023-07-22T12:29:12;17.38;;;16.27;;
46653;SDS011;38960;51.074;17.004;2023-07-22T12:31:37;16.50;;;15.60;;
46653;SDS011;38960;51.074;17.004;2023-07-22T12:34:03;17.30;;;16.20;;
46653;SDS011;38960;51.074;17.004;2023-07-22T12:36:29;17.20;;;15.98;;
46653;SDS011;38960;51.074;17.004;2023-07-22T12:38:54;16.58;;;15.48;;
46653;SDS011;38960;51.074;17.004;2023-07-22T12:41:20;17.92;;;16.48;;
46653;SDS011;38960;51.074;17.004;2023-07-22T12:43:45;17.65;;;16.40;;
46653;SDS011;38960;51.074;17.004;2023-07-22T12:46:11;17.60;;;16.17;;
46653;SDS011;38960;51.074;17.004;2023-07-22T12:48:37;16.17;;;15.27;;
46653;SDS011;38960;51.074;17.004;2023-07-22T12:51:03;16.40;;;15.40;;
46653;SDS011;38960;51.074;17.004;2023-07-22T12:53:29;16.30;;;15.27;;
46653;SDS011;38960;51.074;17.004;2023-07-22T12:55:55;16.27;;;15.20;;
46653;SDS011;38960;51.074;17.004;2023-07-22T12:58:20;16.42;;;15.32;;
46653;SDS011;38960;51.074;17.004;2023-07-22T13:00:46;15.48;;;14.57;;
46653;SDS011;38960;51.074;17.004;2023-07-22T13:03:12;16.30;;;15.30;;
46653;SDS011;38960;51.074;17.004;2023-07-22T13:05:37;16.92;;;15.75;;
46653;SDS011;38960;51.074;17.004;2023-07-22T13:08:03;17.23;;;16.00;;
46653;SDS011;38960;51.074;17.004;2023-07-22T13:10:29;17.20;;;15.70;;
46653;SDS011;38960;51.074;17.004;2023-07-22T13:12:55;18.35;;;17.20;;
46653;SDS011;38960;51.074;17.004;2023-07-22T13:15:21;17.05;;;15.43;;
46653;SDS011;38960;51.074;17.004;2023-07-22T13:17:46;16.55;;;15.15;;
46653;SDS011;38960;51.074;17.004;2023-07-22T13:20:12;17.45;;;16.25;;
46653;SDS011;38960;51.074;17.004;2023-07-22T13:22:38;16.13;;;14.95;;
46653;SDS011;38960;51.074;17.004;2023-07-22T13:25:04;17.73;;;16.23;;
46653;SDS011;38960;51.074;17.004;2023-07-22T13:27:30;18.10;;;16.70;;
46653;SDS011;38960;51.074;17.004;2023-07-22T13:29:56;17.67;;;16.48;;
46653;SDS011;38960;51.074;17.004;2023-07-22T13:32:22;16.67;;;15.57;;
46653;SDS011;38960;51.074;17.004;2023-07-22T13:34:48;16.15;;;15.15;;
46653;SDS011;38960;51.074;17.004;2023-07-22T13:37:14;17.27;;;15.90;;
46653;SDS011;38960;51.074;17.004;2023-07-22T13:39:39;17.30;;;16.20;;
46653;SDS011;38960;51.074;17.004;2023-07-22T13:42:05;17.00;;;15.90;;
46653;SDS011;38960;51.074;17.004;2023-07-22T13:44:30;17.63;;;16.25;;
46653;SDS011;38960;51.074;17.004;2023-07-22T13:46:56;16.60;;;15.50;;
46653;SDS011;38960;51.074;17.004;2023-07-22T13:49:21;16.00;;;15.07;;
46653;SDS011;38960;51.074;17.004;2023-07-22T13:51:47;17.20;;;16.13;;
46653;SDS011;38960;51.074;17.004;2023-07-22T13:54:12;17.42;;;16.08;;
46653;SDS011;38960;51.074;17.004;2023-07-22T13:56:38;16.27;;;15.27;;
46653;SDS011;38960;51.074;17.004;2023-07-22T13:59:03;16.73;;;15.68;;
46653;SDS011;38960;51.074;17.004;2023-07-22T14:01:30;17.30;;;16.10;;
46653;SDS011;38960;51.074;17.004;2023-07-22T14:03:56;17.60;;;16.15;;
46653;SDS011;38960;51.074;17.004;2023-07-22T14:06:22;16.85;;;15.25;;
46653;SDS011;38960;51.074;17.004;2023-07-22T14:08:48;16.52;;;15.45;;
46653;SDS011;38960;51.074;17.004;2023-07-22T14:11:13;16.92;;;15.73;;
46653;SDS011;38960;51.074;17.004;2023-07-22T14:13:39;16.05;;;15.05;;
46653;SDS011;38960;51.074;17.004;2023-07-22T14:16:04;15.90;;;14.90;;